sensor_id;sensor_type;location;lat;lon;timestamp;pressure;altitude;pressure_sealevel;temperature;humidity
76680;BME280;65597;51.520;-0.224;2022-12-07T00:00:36;102298.31;;;6.54;40.98
76680;BME280;65597;51.520;-0.224;2022-12-07T00:03:02;102299.83;;;6.57;40.94
76680;BME280;65597;51.520;-0.224;2022-12-07T00:05:26;102299.66;;;6.41;40.81
76680;BME280;65597;51.520;-0.224;2022-12-07T00:07:51;102300.91;;;6.49;41.35
76680;BME280;65597;51.520;-0.224;2022-12-07T00:10:17;102297.98;;;6.44;40.99
76680;BME280;65597;51.520;-0.224;2022-12-07T00:12:42;102301.29;;;6.06;41.50
76680;BME280;65597;51.520;-0.224;2022-12-07T00:15:08;102301.69;;;6.36;41.11
76680;BME280;65597;51.520;-0.224;2022-12-07T00:17:33;102299.20;;;6.40;41.29
76680;BME280;65597;51.520;-0.224;2022-12-07T00:19:59;102297.89;;;6.48;41.20
76680;BME280;65597;51.520;-0.224;2022-12-07T00:22:24;102299.00;;;6.12;41.84
76680;BME280;65597;51.520;-0.224;2022-12-07T00:24:50;102297.11;;;6.13;41.41
76680;BME280;65597;51.520;-0.224;2022-12-07T00:27:16;102300.08;;;6.56;41.08
76680;BME280;65597;51.520;-0.224;2022-12-07T00:29:41;102298.26;;;6.32;40.98
76680;BME280;65597;51.520;-0.224;2022-12-07T00:32:06;102302.31;;;6.25;41.11
76680;BME280;65597;51.520;-0.224;2022-12-07T00:34:32;102299.57;;;6.56;41.15
76680;BME280;65597;51.520;-0.224;2022-12-07T00:36:57;102300.22;;;6.37;40.98
76680;BME280;65597;51.520;-0.224;2022-12-07T00:39:23;102297.98;;;6.43;40.92
76680;BME280;65597;51.520;-0.224;2022-12-07T00:41:48;102300.86;;;6.63;40.92
76680;BME280;65597;51.520;-0.224;2022-12-07T00:44:14;102300.14;;;6.46;40.88
76680;BME280;65597;51.520;-0.224;2022-12-07T00:46:39;102297.47;;;6.34;40.98
76680;BME280;65597;51.520;-0.224;2022-12-07T00:49:05;102296.27;;;6.59;41.00
76680;BME280;65597;51.520;-0.224;2022-12-07T00:51:31;102292.80;;;6.63;40.94
76680;BME280;65597;51.520;-0.224;2022-12-07T00:53:56;102291.89;;;6.37;40.91
76680;BME280;65597;51.520;-0.224;2022-12-07T00:56:24;102289.53;;;6.45;40.81
76680;BME280;65597;51.520;-0.224;2022-12-07T00:58:51;102291.68;;;6.67;40.76
76680;BME280;65597;51.520;-0.224;2022-12-07T01:01:12;102293.15;;;6.43;40.74
76680;BME280;65597;51.520;-0.224;2022-12-07T01:03:38;102290.95;;;6.36;40.79
76680;BME280;65597;51.520;-0.224;2022-12-07T01:06:03;102292.18;;;6.36;40.84
76680;BME280;65597;51.520;-0.224;2022-12-07T01:08:28;102288.62;;;6.43;40.78
76680;BME280;65597;51.520;-0.224;2022-12-07T01:10:58;102286.41;;;6.47;40.65
76680;BME280;65597;51.520;-0.224;2022-12-07T01:13:19;102287.07;;;6.59;40.82
76680;BME280;65597;51.520;-0.224;2022-12-07T01:15:44;102282.47;;;6.45;40.75
76680;BME280;65597;51.520;-0.224;2022-12-07T01:18:09;102279.96;;;6.40;40.91
76680;BME280;65597;51.520;-0.224;2022-12-07T01:20:35;102276.29;;;6.60;41.03
76680;BME280;65597;51.520;-0.224;2022-12-07T01:23:00;102277.60;;;6.65;40.95
76680;BME280;65597;51.520;-0.224;2022-12-07T01:25:26;102276.93;;;6.27;41.13
76680;BME280;65597;51.520;-0.224;2022-12-07T01:27:51;102274.14;;;6.42;40.98
76680;BME280;65597;51.520;-0.224;2022-12-07T01:30:17;102272.89;;;6.72;40.79
76680;BME280;65597;51.520;-0.224;2022-12-07T01:32:42;102274.05;;;6.46;40.78
76680;BME280;65597;51.520;-0.224;2022-12-07T01:35:08;102275.48;;;6.48;40.78
76680;BME280;65597;51.520;-0.224;2022-12-07T01:37:34;102272.96;;;6.47;40.65
76680;BME280;65597;51.520;-0.224;2022-12-07T01:39:58;102272.51;;;6.54;40.57
76680;BME280;65597;51.520;-0.224;2022-12-07T01:42:24;102277.50;;;6.74;40.55
76680;BME280;65597;51.520;-0.224;2022-12-07T01:47:15;102282.81;;;6.79;40.45
76680;BME280;65597;51.520;-0.224;2022-12-07T01:49:43;102282.26;;;6.51;40.45
76680;BME280;65597;51.520;-0.224;2022-12-07T01:52:13;102281.65;;;6.73;40.44
76680;BME280;65597;51.520;-0.224;2022-12-07T01:54:32;102281.43;;;6.84;40.61
76680;BME280;65597;51.520;-0.224;2022-12-07T01:56:56;102285.78;;;6.37;40.83
76680;BME280;65597;51.520;-0.224;2022-12-07T01:59:23;102284.58;;;5.87;41.36
76680;BME280;65597;51.520;-0.224;2022-12-07T02:01:47;102285.49;;;6.04;41.47
76680;BME280;65597;51.520;-0.224;2022-12-07T02:04:13;102284.04;;;6.38;41.32
76680;BME280;65597;51.520;-0.224;2022-12-07T02:06:39;102280.61;;;5.90;41.46
76680;BME280;65597;51.520;-0.224;2022-12-07T02:09:04;102280.78;;;6.25;41.58
76680;BME280;65597;51.520;-0.224;2022-12-07T02:11:29;102283.29;;;5.76;41.92
76680;BME280;65597;51.520;-0.224;2022-12-07T02:13:55;102283.23;;;6.05;41.54
76680;BME280;65597;51.520;-0.224;2022-12-07T02:16:27;102278.39;;;6.00;41.72
76680;BME280;65597;51.520;-0.224;2022-12-07T02:18:53;102276.25;;;6.11;41.88
76680;BME280;65597;51.520;-0.224;2022-12-07T02:21:13;102276.04;;;5.54;42.81
76680;BME280;65597;51.520;-0.224;2022-12-07T02:23:53;102275.57;;;5.90;42.31
76680;BME280;65597;51.520;-0.224;2022-12-07T02:28:29;102271.33;;;5.39;43.13
76680;BME280;65597;51.520;-0.224;2022-12-07T02:30:55;102270.77;;;5.16;43.53
76680;BME280;65597;51.520;-0.224;2022-12-07T02:33:24;102273.24;;;5.22;43.18
76680;BME280;65597;51.520;-0.224;2022-12-07T02:35:48;102274.33;;;5.01;43.88
76680;BME280;65597;51.520;-0.224;2022-12-07T02:38:13;102272.21;;;4.48;44.82
76680;BME280;65597;51.520;-0.224;2022-12-07T02:40:38;102271.99;;;4.21;45.48
76680;BME280;65597;51.520;-0.224;2022-12-07T02:43:04;102268.83;;;4.88;44.80
76680;BME280;65597;51.520;-0.224;2022-12-07T02:45:25;102270.00;;;4.68;44.74
76680;BME280;65597;51.520;-0.224;2022-12-07T02:47:51;102264.27;;;4.99;44.53
76680;BME280;65597;51.520;-0.224;2022-12-07T02:50:18;102266.69;;;4.68;44.68
76680;BME280;65597;51.520;-0.224;2022-12-07T02:52:41;102266.92;;;4.47;45.55
76680;BME280;65597;51.520;-0.224;2022-12-07T02:55:08;102263.25;;;4.50;45.14
76680;BME280;65597;51.520;-0.224;2022-12-07T02:57:43;102263.65;;;5.00;44.66
76680;BME280;65597;51.520;-0.224;2022-12-07T03:00:03;102264.74;;;5.06;44.15
76680;BME280;65597;51.520;-0.224;2022-12-07T03:02:28;102262.77;;;5.13;44.02
76680;BME280;65597;51.520;-0.224;2022-12-07T03:04:53;102257.93;;;5.43;43.73
76680;BME280;65597;51.520;-0.224;2022-12-07T03:07:21;102257.29;;;4.97;44.11
76680;BME280;65597;51.520;-0.224;2022-12-07T03:09:44;102257.53;;;4.79;44.53
76680;BME280;65597;51.520;-0.224;2022-12-07T03:12:09;102256.76;;;5.22;43.81
76680;BME280;65597;51.520;-0.224;2022-12-07T03:14:31;102254.49;;;5.09;43.95
76680;BME280;65597;51.520;-0.224;2022-12-07T03:16:58;102250.44;;;5.48;43.38
76680;BME280;65597;51.520;-0.224;2022-12-07T03:19:21;102245.83;;;5.32;43.52
76680;BME280;65597;51.520;-0.224;2022-12-07T03:21:51;102246.30;;;5.31;43.45
76680;BME280;65597;51.520;-0.224;2022-12-07T03:24:14;102248.94;;;5.60;43.07
76680;BME280;65597;51.520;-0.224;2022-12-07T03:26:42;102244.00;;;5.62;43.03
76680;BME280;65597;51.520;-0.224;2022-12-07T03:29:07;102240.08;;;5.33;43.37
76680;BME280;65597;51.520;-0.224;2022-12-07T03:31:30;102241.79;;;5.69;42.88
76680;BME280;65597;51.520;-0.224;2022-12-07T03:33:58;102242.21;;;5.80;42.69
76680;BME280;65597;51.520;-0.224;2022-12-07T03:36:22;102237.27;;;5.26;42.99
76680;BME280;65597;51.520;-0.224;2022-12-07T03:38:48;102241.45;;;5.79;42.50
76680;BME280;65597;51.520;-0.224;2022-12-07T03:41:12;102240.27;;;5.65;42.80
76680;BME280;65597;51.520;-0.224;2022-12-07T03:43:36;102238.30;;;5.51;42.71
76680;BME280;65597;51.520;-0.224;2022-12-07T03:46:07;102230.16;;;5.73;42.69
76680;BME280;65597;51.520;-0.224;2022-12-07T03:48:32;102230.52;;;5.49;43.02
76680;BME280;65597;51.520;-0.224;2022-12-07T03:50:56;102227.54;;;5.37;42.95
76680;BME280;65597;51.520;-0.224;2022-12-07T03:53:20;102226.10;;;5.76;42.80
76680;BME280;65597;51.520;-0.224;2022-12-07T03:55:44;102228.44;;;5.56;42.97
76680;BME280;65597;51.520;-0.224;2022-12-07T03:58:11;102226.89;;;5.01;43.78
76680;BME280;65597;51.520;-0.224;2022-12-07T04:00:33;102231.13;;;5.12;43.74
76680;BME280;65597;51.520;-0.224;2022-12-07T04:02:58;102230.91;;;5.23;43.64
76680;BME280;65597;51.520;-0.224;2022-12-07T04:05:24;102233.88;;;5.11;43.81
76680;BME280;65597;51.520;-0.224;2022-12-07T04:07:49;102232.95;;;5.12;43.77
76680;BME280;65597;51.520;-0.224;2022-12-07T04:10:15;102229.09;;;5.21;43.64
76680;BME280;65597;51.520;-0.224;2022-12-07T04:12:40;102231.63;;;5.53;43.15
76680;BME280;65597;51.520;-0.224;2022-12-07T04:15:07;102233.11;;;5.75;42.89
76680;BME280;65597;51.520;-0.224;2022-12-07T04:17:31;102230.98;;;5.61;42.67
76680;BME280;65597;51.520;-0.224;2022-12-07T04:19:56;102227.45;;;5.49;42.76
76680;BME280;65597;51.520;-0.224;2022-12-07T04:22:21;102233.02;;;5.74;42.72
76680;BME280;65597;51.520;-0.224;2022-12-07T04:24:46;102231.97;;;5.35;42.87
76680;BME280;65597;51.520;-0.224;2022-12-07T04:27:12;102234.52;;;5.57;42.58
76680;BME280;65597;51.520;-0.224;2022-12-07T04:29:38;102233.43;;;5.92;42.39
76680;BME280;65597;51.520;-0.224;2022-12-07T04:32:04;102237.13;;;5.99;42.33
76680;BME280;65597;51.520;-0.224;2022-12-07T04:34:29;102241.83;;;5.73;42.05
76680;BME280;65597;51.520;-0.224;2022-12-07T04:36:55;102242.23;;;5.74;41.78
76680;BME280;65597;51.520;-0.224;2022-12-07T04:39:23;102243.75;;;6.12;41.79
76680;BME280;65597;51.520;-0.224;2022-12-07T04:41:46;102239.03;;;5.87;41.92
76680;BME280;65597;51.520;-0.224;2022-12-07T04:44:13;102241.30;;;5.64;42.16
76680;BME280;65597;51.520;-0.224;2022-12-07T04:46:37;102242.37;;;5.80;42.23
76680;BME280;65597;51.520;-0.224;2022-12-07T04:49:02;102239.31;;;5.61;42.24
76680;BME280;65597;51.520;-0.224;2022-12-07T04:51:28;102233.90;;;5.48;42.46
76680;BME280;65597;51.520;-0.224;2022-12-07T04:53:54;102233.76;;;5.65;42.36
76680;BME280;65597;51.520;-0.224;2022-12-07T04:56:18;102233.54;;;6.05;41.99
76680;BME280;65597;51.520;-0.224;2022-12-07T04:58:46;102227.96;;;6.19;41.78
76680;BME280;65597;51.520;-0.224;2022-12-07T05:01:09;102230.46;;;6.11;41.89
76680;BME280;65597;51.520;-0.224;2022-12-07T05:03:35;102236.62;;;5.88;41.81
76680;BME280;65597;51.520;-0.224;2022-12-07T05:06:00;102232.10;;;5.95;41.78
76680;BME280;65597;51.520;-0.224;2022-12-07T05:08:25;102231.66;;;5.97;41.90
76680;BME280;65597;51.520;-0.224;2022-12-07T05:10:51;102235.80;;;5.69;41.67
76680;BME280;65597;51.520;-0.224;2022-12-07T05:13:16;102232.13;;;6.20;41.63
76680;BME280;65597;51.520;-0.224;2022-12-07T05:15:42;102227.09;;;6.31;41.36
76680;BME280;65597;51.520;-0.224;2022-12-07T05:18:07;102228.76;;;6.29;41.42
76680;BME280;65597;51.520;-0.224;2022-12-07T05:20:32;102225.72;;;6.15;41.28
76680;BME280;65597;51.520;-0.224;2022-12-07T05:22:58;102219.39;;;6.20;41.43
76680;BME280;65597;51.520;-0.224;2022-12-07T05:25:23;102222.33;;;5.93;41.34
76680;BME280;65597;51.520;-0.224;2022-12-07T05:27:48;102219.12;;;6.33;41.13
76680;BME280;65597;51.520;-0.224;2022-12-07T05:30:14;102219.87;;;6.08;41.16
76680;BME280;65597;51.520;-0.224;2022-12-07T05:32:39;102216.23;;;5.97;41.33
76680;BME280;65597;51.520;-0.224;2022-12-07T05:35:05;102219.84;;;6.36;41.07
76680;BME280;65597;51.520;-0.224;2022-12-07T05:37:30;102222.14;;;5.69;41.17
76680;BME280;65597;51.520;-0.224;2022-12-07T05:39:56;102222.62;;;6.29;41.12
76680;BME280;65597;51.520;-0.224;2022-12-07T05:42:21;102224.50;;;6.02;40.99
76680;BME280;65597;51.520;-0.224;2022-12-07T05:44:47;102223.90;;;6.01;40.98
76680;BME280;65597;51.520;-0.224;2022-12-07T05:47:14;102220.34;;;6.19;41.10
76680;BME280;65597;51.520;-0.224;2022-12-07T05:49:38;102222.71;;;5.54;41.46
76680;BME280;65597;51.520;-0.224;2022-12-07T05:52:04;102221.29;;;5.69;41.30
76680;BME280;65597;51.520;-0.224;2022-12-07T05:54:29;102217.75;;;5.54;41.45
76680;BME280;65597;51.520;-0.224;2022-12-07T05:56:54;102216.58;;;5.94;41.31
76680;BME280;65597;51.520;-0.224;2022-12-07T05:59:19;102216.19;;;5.77;41.47
76680;BME280;65597;51.520;-0.224;2022-12-07T06:01:45;102206.08;;;5.23;41.87
76680;BME280;65597;51.520;-0.224;2022-12-07T06:04:10;102209.79;;;5.84;41.39
76680;BME280;65597;51.520;-0.224;2022-12-07T06:06:36;102211.77;;;5.56;41.81
76680;BME280;65597;51.520;-0.224;2022-12-07T06:09:02;102211.89;;;5.45;41.88
76680;BME280;65597;51.520;-0.224;2022-12-07T06:11:27;102211.50;;;5.63;41.55
76680;BME280;65597;51.520;-0.224;2022-12-07T06:13:52;102214.81;;;5.70;41.66
76680;BME280;65597;51.520;-0.224;2022-12-07T06:16:18;102215.80;;;5.45;41.85
76680;BME280;65597;51.520;-0.224;2022-12-07T06:18:43;102213.92;;;5.54;41.75
76680;BME280;65597;51.520;-0.224;2022-12-07T06:21:09;102216.22;;;5.46;41.70
76680;BME280;65597;51.520;-0.224;2022-12-07T06:23:35;102212.69;;;5.71;41.54
76680;BME280;65597;51.520;-0.224;2022-12-07T06:26:00;102212.24;;;5.76;41.63
76680;BME280;65597;51.520;-0.224;2022-12-07T06:28:25;102216.91;;;5.57;41.49
76680;BME280;65597;51.520;-0.224;2022-12-07T06:30:56;102216.58;;;4.91;42.56
76680;BME280;65597;51.520;-0.224;2022-12-07T06:33:17;102215.71;;;5.20;41.89
76680;BME280;65597;51.520;-0.224;2022-12-07T06:35:42;102217.52;;;5.22;41.99
76680;BME280;65597;51.520;-0.224;2022-12-07T06:38:08;102218.39;;;5.29;42.22
76680;BME280;65597;51.520;-0.224;2022-12-07T06:40:33;102216.83;;;5.11;42.47
76680;BME280;65597;51.520;-0.224;2022-12-07T06:42:59;102220.63;;;5.38;41.96
76680;BME280;65597;51.520;-0.224;2022-12-07T06:45:24;102226.63;;;5.41;41.92
76680;BME280;65597;51.520;-0.224;2022-12-07T06:47:50;102228.36;;;5.56;41.75
76680;BME280;65597;51.520;-0.224;2022-12-07T06:50:15;102230.33;;;5.46;41.88
76680;BME280;65597;51.520;-0.224;2022-12-07T06:52:41;102231.83;;;5.25;42.07
76680;BME280;65597;51.520;-0.224;2022-12-07T06:55:07;102232.74;;;4.63;43.11
76680;BME280;65597;51.520;-0.224;2022-12-07T06:57:32;102230.87;;;4.48;43.38
76680;BME280;65597;51.520;-0.224;2022-12-07T06:59:58;102230.36;;;4.59;43.83
76680;BME280;65597;51.520;-0.224;2022-12-07T07:02:23;102236.48;;;4.06;44.10
76680;BME280;65597;51.520;-0.224;2022-12-07T07:04:49;102233.45;;;4.35;43.76
76680;BME280;65597;51.520;-0.224;2022-12-07T07:07:14;102235.72;;;5.01;43.07
76680;BME280;65597;51.520;-0.224;2022-12-07T07:09:40;102242.89;;;4.78;43.23
76680;BME280;65597;51.520;-0.224;2022-12-07T07:12:06;102241.60;;;4.87;42.92
76680;BME280;65597;51.520;-0.224;2022-12-07T07:14:31;102237.66;;;4.63;43.23
76680;BME280;65597;51.520;-0.224;2022-12-07T07:16:56;102230.72;;;4.56;43.53
76680;BME280;65597;51.520;-0.224;2022-12-07T07:19:21;102228.85;;;4.38;43.80
76680;BME280;65597;51.520;-0.224;2022-12-07T07:21:46;102231.93;;;4.87;43.39
76680;BME280;65597;51.520;-0.224;2022-12-07T07:24:12;102232.16;;;4.65;43.27
76680;BME280;65597;51.520;-0.224;2022-12-07T07:26:37;102229.99;;;4.41;43.72
76680;BME280;65597;51.520;-0.224;2022-12-07T07:29:03;102230.37;;;4.16;43.72
76680;BME280;65597;51.520;-0.224;2022-12-07T07:31:28;102226.09;;;3.88;44.66
76680;BME280;65597;51.520;-0.224;2022-12-07T07:33:54;102224.08;;;4.20;44.06
76680;BME280;65597;51.520;-0.224;2022-12-07T07:36:19;102233.39;;;4.40;43.90
76680;BME280;65597;51.520;-0.224;2022-12-07T07:38:44;102231.81;;;4.49;43.38
76680;BME280;65597;51.520;-0.224;2022-12-07T07:41:10;102233.85;;;4.74;43.20
76680;BME280;65597;51.520;-0.224;2022-12-07T07:43:36;102235.68;;;4.62;43.28
76680;BME280;65597;51.520;-0.224;2022-12-07T07:46:02;102237.60;;;4.54;43.47
76680;BME280;65597;51.520;-0.224;2022-12-07T07:48:27;102240.85;;;4.25;43.52
76680;BME280;65597;51.520;-0.224;2022-12-07T07:50:52;102242.08;;;4.89;43.80
76680;BME280;65597;51.520;-0.224;2022-12-07T07:53:18;102240.49;;;4.74;43.09
76680;BME280;65597;51.520;-0.224;2022-12-07T07:55:51;102240.32;;;4.75;42.60
76680;BME280;65597;51.520;-0.224;2022-12-07T07:58:09;102240.84;;;4.28;43.04
76680;BME280;65597;51.520;-0.224;2022-12-07T08:00:34;102240.40;;;4.41;42.65
76680;BME280;65597;51.520;-0.224;2022-12-07T08:03:00;102244.27;;;4.37;42.74
76680;BME280;65597;51.520;-0.224;2022-12-07T08:05:26;102248.11;;;4.78;42.48
76680;BME280;65597;51.520;-0.224;2022-12-07T08:07:51;102246.52;;;4.80;42.92
76680;BME280;65597;51.520;-0.224;2022-12-07T08:10:17;102241.76;;;4.43;43.12
76680;BME280;65597;51.520;-0.224;2022-12-07T08:12:43;102243.10;;;4.67;42.98
76680;BME280;65597;51.520;-0.224;2022-12-07T08:15:08;102247.82;;;5.05;42.52
76680;BME280;65597;51.520;-0.224;2022-12-07T08:17:33;102246.78;;;4.57;42.75
76680;BME280;65597;51.520;-0.224;2022-12-07T08:19:59;102248.03;;;4.48;42.88
76680;BME280;65597;51.520;-0.224;2022-12-07T08:22:24;102249.58;;;4.64;42.94
76680;BME280;65597;51.520;-0.224;2022-12-07T08:24:50;102248.87;;;4.71;42.88
76680;BME280;65597;51.520;-0.224;2022-12-07T08:27:16;102251.19;;;4.71;42.88
76680;BME280;65597;51.520;-0.224;2022-12-07T08:29:41;102247.60;;;4.80;42.80
76680;BME280;65597;51.520;-0.224;2022-12-07T08:32:07;102246.19;;;4.83;42.73
76680;BME280;65597;51.520;-0.224;2022-12-07T08:34:32;102241.30;;;4.36;42.58
76680;BME280;65597;51.520;-0.224;2022-12-07T08:36:57;102239.12;;;4.90;42.43
76680;BME280;65597;51.520;-0.224;2022-12-07T08:39:23;102240.35;;;4.54;42.72
76680;BME280;65597;51.520;-0.224;2022-12-07T08:41:48;102241.64;;;4.58;42.82
76680;BME280;65597;51.520;-0.224;2022-12-07T08:44:14;102241.42;;;4.47;42.99
76680;BME280;65597;51.520;-0.224;2022-12-07T08:46:42;102239.38;;;4.48;42.65
76680;BME280;65597;51.520;-0.224;2022-12-07T08:49:08;102239.25;;;4.60;42.35
76680;BME280;65597;51.520;-0.224;2022-12-07T08:51:32;102238.21;;;4.58;42.44
76680;BME280;65597;51.520;-0.224;2022-12-07T08:53:58;102238.29;;;4.77;42.43
76680;BME280;65597;51.520;-0.224;2022-12-07T08:56:22;102243.90;;;4.57;42.15
76680;BME280;65597;51.520;-0.224;2022-12-07T08:58:48;102249.89;;;3.99;42.49
76680;BME280;65597;51.520;-0.224;2022-12-07T09:01:14;102245.29;;;4.79;42.09
76680;BME280;65597;51.520;-0.224;2022-12-07T09:03:40;102248.33;;;4.32;42.73
76680;BME280;65597;51.520;-0.224;2022-12-07T09:06:05;102242.77;;;4.33;42.69
76680;BME280;65597;51.520;-0.224;2022-12-07T09:08:33;102237.97;;;4.39;42.45
76680;BME280;65597;51.520;-0.224;2022-12-07T09:10:56;102232.38;;;4.04;42.92
76680;BME280;65597;51.520;-0.224;2022-12-07T09:13:21;102230.85;;;4.53;42.13
76680;BME280;65597;51.520;-0.224;2022-12-07T09:15:47;102228.57;;;4.41;43.23
76680;BME280;65597;51.520;-0.224;2022-12-07T09:18:12;102230.98;;;4.50;41.97
76680;BME280;65597;51.520;-0.224;2022-12-07T09:20:37;102227.08;;;4.59;41.95
76680;BME280;65597;51.520;-0.224;2022-12-07T09:23:05;102226.88;;;4.81;41.58
76680;BME280;65597;51.520;-0.224;2022-12-07T09:25:28;102225.80;;;4.99;41.22
76680;BME280;65597;51.520;-0.224;2022-12-07T09:27:57;102222.38;;;4.70;41.37
76680;BME280;65597;51.520;-0.224;2022-12-07T09:30:19;102224.32;;;4.92;41.42
76680;BME280;65597;51.520;-0.224;2022-12-07T09:32:44;102225.94;;;4.47;41.96
76680;BME280;65597;51.520;-0.224;2022-12-07T09:35:09;102220.99;;;4.70;41.64
76680;BME280;65597;51.520;-0.224;2022-12-07T09:37:34;102221.84;;;4.94;41.25
76680;BME280;65597;51.520;-0.224;2022-12-07T09:39:59;102220.33;;;4.85;41.36
76680;BME280;65597;51.520;-0.224;2022-12-07T09:42:29;102219.04;;;4.42;41.49
76680;BME280;65597;51.520;-0.224;2022-12-07T09:44:50;102215.27;;;5.08;40.83
76680;BME280;65597;51.520;-0.224;2022-12-07T09:47:16;102210.20;;;4.76;41.11
76680;BME280;65597;51.520;-0.224;2022-12-07T09:49:42;102213.18;;;4.22;41.61
76680;BME280;65597;51.520;-0.224;2022-12-07T09:52:17;102214.61;;;4.88;41.07
76680;BME280;65597;51.520;-0.224;2022-12-07T09:54:35;102217.08;;;4.80;41.23
76680;BME280;65597;51.520;-0.224;2022-12-07T09:56:58;102217.63;;;3.70;41.95
76680;BME280;65597;51.520;-0.224;2022-12-07T09:59:25;102220.13;;;3.38;43.29
76680;BME280;65597;51.520;-0.224;2022-12-07T10:01:50;102222.87;;;3.51;43.22
76680;BME280;65597;51.520;-0.224;2022-12-07T10:04:18;102222.90;;;3.45;42.81
76680;BME280;65597;51.520;-0.224;2022-12-07T10:06:41;102223.11;;;3.33;43.60
76680;BME280;65597;51.520;-0.224;2022-12-07T10:09:11;102220.74;;;3.28;43.75
76680;BME280;65597;51.520;-0.224;2022-12-07T10:11:31;102215.89;;;3.38;43.42
76680;BME280;65597;51.520;-0.224;2022-12-07T10:16:37;102211.57;;;2.62;44.59
76680;BME280;65597;51.520;-0.224;2022-12-07T10:18:47;102203.70;;;3.18;50.03
76680;BME280;65597;51.520;-0.224;2022-12-07T10:21:16;102197.35;;;3.15;43.96
76680;BME280;65597;51.520;-0.224;2022-12-07T10:23:40;102193.90;;;3.81;43.38
76680;BME280;65597;51.520;-0.224;2022-12-07T10:26:19;102191.59;;;4.17;42.70
76680;BME280;65597;51.520;-0.224;2022-12-07T10:28:34;102190.21;;;4.42;42.26
76680;BME280;65597;51.520;-0.224;2022-12-07T10:30:58;102181.74;;;4.33;42.29
76680;BME280;65597;51.520;-0.224;2022-12-07T10:33:31;102176.13;;;4.14;42.28
76680;BME280;65597;51.520;-0.224;2022-12-07T10:35:46;102173.06;;;3.97;42.35
76680;BME280;65597;51.520;-0.224;2022-12-07T10:38:16;102172.76;;;3.78;43.01
76680;BME280;65597;51.520;-0.224;2022-12-07T10:40:37;102175.66;;;3.11;44.03
76680;BME280;65597;51.520;-0.224;2022-12-07T10:43:17;102178.58;;;3.58;43.33
76680;BME280;65597;51.520;-0.224;2022-12-07T10:45:28;102169.71;;;4.00;42.76
76680;BME280;65597;51.520;-0.224;2022-12-07T10:47:59;102167.34;;;4.29;42.25
76680;BME280;65597;51.520;-0.224;2022-12-07T10:50:35;102164.83;;;4.52;42.25
76680;BME280;65597;51.520;-0.224;2022-12-07T10:52:58;102164.78;;;4.54;41.99
76680;BME280;65597;51.520;-0.224;2022-12-07T10:55:18;102165.63;;;3.97;41.97
76680;BME280;65597;51.520;-0.224;2022-12-07T10:57:44;102161.57;;;4.90;41.33
76680;BME280;65597;51.520;-0.224;2022-12-07T11:00:08;102164.29;;;4.82;41.53
76680;BME280;65597;51.520;-0.224;2022-12-07T11:02:37;102166.82;;;4.79;41.98
76680;BME280;65597;51.520;-0.224;2022-12-07T11:04:59;102163.39;;;4.81;41.64
76680;BME280;65597;51.520;-0.224;2022-12-07T11:07:23;102160.48;;;4.97;41.41
76680;BME280;65597;51.520;-0.224;2022-12-07T11:09:52;102155.76;;;4.33;41.74
76680;BME280;65597;51.520;-0.224;2022-12-07T11:12:12;102146.26;;;3.91;42.24
76680;BME280;65597;51.520;-0.224;2022-12-07T11:14:39;102145.74;;;4.45;41.37
76680;BME280;65597;51.520;-0.224;2022-12-07T11:17:02;102147.05;;;4.98;41.24
76680;BME280;65597;51.520;-0.224;2022-12-07T11:19:35;102144.96;;;4.56;41.38
76680;BME280;65597;51.520;-0.224;2022-12-07T11:21:56;102141.37;;;4.53;41.32
76680;BME280;65597;51.520;-0.224;2022-12-07T11:24:16;102134.35;;;4.74;41.73
76680;BME280;65597;51.520;-0.224;2022-12-07T11:26:55;102130.35;;;3.56;42.74
76680;BME280;65597;51.520;-0.224;2022-12-07T11:29:19;102128.06;;;4.18;42.49
76680;BME280;65597;51.520;-0.224;2022-12-07T11:31:36;102124.65;;;4.46;42.38
76680;BME280;65597;51.520;-0.224;2022-12-07T11:34:02;102120.85;;;4.19;42.44
76680;BME280;65597;51.520;-0.224;2022-12-07T11:36:33;102112.99;;;4.28;42.23
76680;BME280;65597;51.520;-0.224;2022-12-07T11:38:52;102112.82;;;4.88;41.64
76680;BME280;65597;51.520;-0.224;2022-12-07T11:41:17;102112.09;;;4.21;42.33
76680;BME280;65597;51.520;-0.224;2022-12-07T11:43:49;102108.18;;;4.01;42.23
76680;BME280;65597;51.520;-0.224;2022-12-07T11:46:07;102105.88;;;4.11;42.02
76680;BME280;65597;51.520;-0.224;2022-12-07T11:48:35;102110.19;;;4.02;42.43
76680;BME280;65597;51.520;-0.224;2022-12-07T11:50:58;102106.17;;;3.69;43.01
76680;BME280;65597;51.520;-0.224;2022-12-07T11:53:24;102102.20;;;4.44;42.12
76680;BME280;65597;51.520;-0.224;2022-12-07T11:55:49;102102.58;;;4.31;42.48
76680;BME280;65597;51.520;-0.224;2022-12-07T11:58:21;102100.95;;;4.25;42.25
76680;BME280;65597;51.520;-0.224;2022-12-07T12:00:38;102097.41;;;4.81;41.49
76680;BME280;65597;51.520;-0.224;2022-12-07T12:03:08;102091.59;;;5.07;41.19
76680;BME280;65597;51.520;-0.224;2022-12-07T12:05:28;102085.60;;;4.79;41.17
76680;BME280;65597;51.520;-0.224;2022-12-07T12:08:00;102082.48;;;5.48;40.50
76680;BME280;65597;51.520;-0.224;2022-12-07T12:10:26;102079.50;;;5.29;40.24
76680;BME280;65597;51.520;-0.224;2022-12-07T12:12:57;102064.65;;;5.68;39.65
76680;BME280;65597;51.520;-0.224;2022-12-07T12:15:18;102057.17;;;5.35;39.48
76680;BME280;65597;51.520;-0.224;2022-12-07T12:17:49;102052.24;;;5.59;39.47
76680;BME280;65597;51.520;-0.224;2022-12-07T12:20:05;102051.16;;;6.09;38.68
76680;BME280;65597;51.520;-0.224;2022-12-07T12:22:33;102048.50;;;5.48;39.50
76680;BME280;65597;51.520;-0.224;2022-12-07T12:24:53;102043.31;;;5.28;39.97
76680;BME280;65597;51.520;-0.224;2022-12-07T12:27:23;102041.03;;;6.06;39.18
76680;BME280;65597;51.520;-0.224;2022-12-07T12:29:44;102039.72;;;5.69;38.81
76680;BME280;65597;51.520;-0.224;2022-12-07T12:32:16;102037.92;;;4.63;39.95
76680;BME280;65597;51.520;-0.224;2022-12-07T12:34:39;102034.07;;;6.17;38.91
76680;BME280;65597;51.520;-0.224;2022-12-07T12:37:00;102030.13;;;6.10;38.45
76680;BME280;65597;51.520;-0.224;2022-12-07T12:39:26;102027.61;;;6.04;38.20
76680;BME280;65597;51.520;-0.224;2022-12-07T12:41:55;102028.41;;;6.38;37.65
76680;BME280;65597;51.520;-0.224;2022-12-07T12:46:49;102022.92;;;6.66;37.26
76680;BME280;65597;51.520;-0.224;2022-12-07T12:49:14;102019.86;;;6.12;38.27